Bermuda Islander — PBDA — position and weather

sailwx.info

Track history (hours):
 
Tides and Currents Weather Stations Pressure Air Temp Water Temp Dewpoint Dewpoint Depression Visibility Wind Speed Wind Dir Waves Ship Positions

Bermuda Islander

Last reported at 2018-Feb-20 12:41 UTC. Time now 2018-Feb-20 15:35 UTC.
Position N 38°24' W 074°39'.

Length 100 m; draft 3.9 m.

Type: Ship (hazmat cat B). MMSI: 244820000.

Date/timePositionNaut miles runAvg speedWind from/ knotsBaromVisibWave heightAir tempDewpointWater temp
2018-Feb-20 12:41N 38°24' W 074°39'513.3
2018-Feb-20 12:20N 38°27' W 074°43'1311.8
2018-Feb-20 11:16N 38°37' W 074°53'3 9.6
2018-Feb-20 10:56N 38°40' W 074°55'4 8.9
2018-Feb-20 10:30N 38°43' W 074°58'5 9.4
2018-Feb-20 09:59N 38°46' W 075°02'4 9.2
2018-Feb-20 09:30N 38°50' W 075°05'815.1
2018-Feb-20 09:00N 38°58' W 075°07'815.5
2018-Feb-20 08:30N 39°05' W 075°11'715.0
2018-Feb-20 08:00N 39°11' W 075°16'714.2
2018-Feb-20 07:30N 39°17' W 075°22'713.4
2018-Feb-20 07:00N 39°22' W 075°27'612.7
2018-Feb-20 06:30N 39°27' W 075°33'510.9
2018-Feb-20 06:00N 39°32' W 075°33'3 6.2
2018-Feb-20 05:30N 39°34' W 075°30'1 1.3
2018-Feb-20 04:58N 39°34' W 075°29'0 0.0
2018-Feb-20 04:28N 39°34' W 075°29'0 0.0
2018-Feb-20 03:59N 39°34' W 075°29'0 0.0
2018-Feb-20 03:28N 39°34' W 075°29'0 0.0
2018-Feb-20 02:58N 39°34' W 075°29'0 0.0
2018-Feb-20 02:28N 39°34' W 075°29'0 0.0
2018-Feb-20 01:58N 39°34' W 075°29'0 0.0
2018-Feb-20 01:28N 39°34' W 075°29'0 0.0
2018-Feb-20 00:58N 39°34' W 075°29'0 0.0
2018-Feb-20 00:28N 39°34' W 075°29'0 0.0
2018-Feb-19 23:58N 39°34' W 075°29'0 0.0
2018-Feb-19 23:28N 39°34' W 075°29'0 0.0
2018-Feb-19 22:58N 39°34' W 075°29'0 0.0
2018-Feb-19 22:28N 39°34' W 075°29'0 0.0
2018-Feb-19 21:58N 39°34' W 075°29'0 0.0
2018-Feb-19 21:28N 39°34' W 075°29'0 0.0
2018-Feb-19 20:58N 39°34' W 075°29'0 0.0
2018-Feb-19 20:28N 39°34' W 075°29'0 0.0
2018-Feb-19 19:58N 39°34' W 075°29'0 0.0
2018-Feb-19 19:28N 39°34' W 075°29'0 0.0
2018-Feb-19 18:58N 39°34' W 075°29'0 0.0
2018-Feb-19 18:28N 39°34' W 075°29'0 0.0
2018-Feb-19 17:58N 39°34' W 075°29'0 0.0
2018-Feb-19 17:28N 39°34' W 075°29'0 0.0
2018-Feb-19 16:58N 39°34' W 075°29'0 0.0
2018-Feb-19 16:28N 39°34' W 075°29'0 0.0
2018-Feb-19 15:58N 39°34' W 075°29'0 0.0
2018-Feb-19 15:28N 39°34' W 075°29'0 0.0
2018-Feb-19 14:58N 39°34' W 075°29'0 0.0
2018-Feb-19 14:28N 39°34' W 075°29'0 0.0
2018-Feb-19 13:58N 39°34' W 075°29'0 0.0
2018-Feb-19 13:28N 39°34' W 075°29'0 0.0
2018-Feb-19 12:58N 39°34' W 075°29'0 0.0
2018-Feb-19 12:28N 39°34' W 075°29'0 0.0
2018-Feb-19 12:00N 39°34' W 075°29'1 1.4
2018-Feb-19 11:30N 39°34' W 075°30'3 5.6
2018-Feb-19 11:00N 39°32' W 075°33'0 0.0
2018-Feb-19 10:29N 39°32' W 075°33'0 0.0
2018-Feb-19 09:59N 39°32' W 075°33'0 0.0
2018-Feb-19 09:29N 39°32' W 075°33'0 0.0
2018-Feb-19 08:59N 39°32' W 075°33'0 0.0
2018-Feb-19 08:29N 39°32' W 075°33'0 0.2
2018-Feb-19 07:59N 39°33' W 075°33'0 0.1
2018-Feb-19 07:29N 39°33' W 075°33'0 0.0
2018-Feb-19 06:59N 39°33' W 075°33'0 0.0
2018-Feb-19 06:29N 39°33' W 075°33'0 0.0
2018-Feb-19 05:59N 39°33' W 075°33'0 0.0
2018-Feb-19 05:29N 39°33' W 075°33'1 2.1
2018-Feb-19 05:00N 39°32' W 075°33'611.4
2018-Feb-19 04:30N 39°26' W 075°32'816.3
2018-Feb-19 04:00N 39°20' W 075°25'816.1
2018-Feb-19 03:31N 39°14' W 075°18'815.7
2018-Feb-19 03:00N 39°07' W 075°13'  
2018-Feb-13 07:35N 38°29' W 074°46'413.8
2018-Feb-13 07:16N 38°33' W 074°49'4 9.7
2018-Feb-13 06:51N 38°36' W 074°52'4 9.3
2018-Feb-13 06:23N 38°39' W 074°55'4 9.3
2018-Feb-13 05:59N 38°42' W 074°58'5 9.4
2018-Feb-13 05:24N 38°47' W 075°02'4 9.8
2018-Feb-13 05:00N 38°50' W 075°04'714.5
2018-Feb-13 04:30N 38°57' W 075°07'815.9
2018-Feb-13 04:00N 39°05' W 075°11'815.2
2018-Feb-13 03:30N 39°11' W 075°16'714.5
2018-Feb-13 03:00N 39°17' W 075°22'713.9
2018-Feb-13 02:30N 39°22' W 075°28'713.1
2018-Feb-13 02:00N 39°27' W 075°33'611.1
2018-Feb-13 01:30N 39°32' W 075°33'3 5.8
2018-Feb-13 01:00N 39°34' W 075°30'0 0.7
2018-Feb-13 00:28N 39°34' W 075°29'0 0.0
2018-Feb-12 23:58N 39°34' W 075°29'0 0.0
2018-Feb-12 23:28N 39°34' W 075°29'0 0.0
2018-Feb-12 22:58N 39°34' W 075°29'0 0.0
2018-Feb-12 22:28N 39°34' W 075°29'0 0.0
2018-Feb-12 21:58N 39°34' W 075°29'0 0.0
2018-Feb-12 21:28N 39°34' W 075°29'0 0.0
2018-Feb-12 20:58N 39°34' W 075°29'0 0.0
2018-Feb-12 20:28N 39°34' W 075°29'0 0.0
2018-Feb-12 19:58N 39°34' W 075°29'0 0.0
2018-Feb-12 19:28N 39°34' W 075°29'0 0.0
2018-Feb-12 18:58N 39°34' W 075°29'0 0.0
2018-Feb-12 18:28N 39°34' W 075°29'0 0.0
2018-Feb-12 17:58N 39°34' W 075°29'0 0.0
2018-Feb-12 17:28N 39°34' W 075°29'0 0.0
2018-Feb-12 16:58N 39°34' W 075°29'0 0.0
2018-Feb-12 16:28N 39°34' W 075°29'0 0.0
2018-Feb-12 15:58N 39°34' W 075°29'0 0.0
2018-Feb-12 15:28N 39°34' W 075°29'0 0.0
2018-Feb-12 14:58N 39°34' W 075°29'0 0.0
2018-Feb-12 14:28N 39°34' W 075°29'0 0.0
2018-Feb-12 13:58N 39°34' W 075°29'0 0.0
2018-Feb-12 13:28N 39°34' W 075°29'0 0.0
2018-Feb-12 12:58N 39°34' W 075°29'0 0.0
2018-Feb-12 12:28N 39°34' W 075°29'0 0.3
2018-Feb-12 12:00N 39°34' W 075°29'3 5.8
2018-Feb-12 11:30N 39°33' W 075°32'1 2.0
2018-Feb-12 11:00N 39°32' W 075°33'0 0.1
2018-Feb-12 10:30N 39°32' W 075°33'0 0.1
2018-Feb-12 10:00N 39°32' W 075°33'0 0.0
2018-Feb-12 09:30N 39°32' W 075°33'0 0.0
2018-Feb-12 09:00N 39°32' W 075°33'0 0.0
2018-Feb-12 08:30N 39°32' W 075°33'0 0.0
2018-Feb-12 08:00N 39°32' W 075°33'0 0.1
2018-Feb-12 07:30N 39°32' W 075°33'0 0.0
2018-Feb-12 07:00N 39°32' W 075°33'0 0.0
2018-Feb-12 06:30N 39°32' W 075°33'0 0.0
2018-Feb-12 06:00N 39°32' W 075°33'0 0.0
2018-Feb-12 05:30N 39°32' W 075°33'0 0.0
2018-Feb-12 05:00N 39°32' W 075°33'0 0.1
2018-Feb-12 04:30N 39°32' W 075°33'0 0.0
2018-Feb-12 04:00N 39°32' W 075°33'0 0.0
2018-Feb-12 03:30N 39°32' W 075°33'0 0.2
2018-Feb-12 03:00N 39°32' W 075°33'0 0.1
2018-Feb-12 02:27N 39°32' W 075°33'0 0.0
2018-Feb-12 02:00N 39°32' W 075°33'0 0.0
2018-Feb-12 01:30N 39°32' W 075°33'0 0.1
2018-Feb-12 01:00N 39°32' W 075°33'0 0.0
2018-Feb-12 00:30N 39°32' W 075°33'0 0.0
2018-Feb-12 00:00N 39°32' W 075°33'0 0.0
2018-Feb-11 23:30N 39°32' W 075°33'0 0.0
2018-Feb-11 23:00N 39°32' W 075°33'0 0.1
2018-Feb-11 22:30N 39°32' W 075°33'1 1.7
2018-Feb-11 22:00N 39°31' W 075°33'4 8.2
2018-Feb-11 21:30N 39°27' W 075°33'713.4
2018-Feb-11 21:00N 39°22' W 075°28'713.3
2018-Feb-11 20:30N 39°17' W 075°22'713.3
2018-Feb-11 20:00N 39°12' W 075°17'713.9
2018-Feb-11 19:30N 39°06' W 075°12'814.3
2018-Feb-11 18:59N 38°59' W 075°08'  
Track history (hours):
 
Tides and Currents Weather Stations Pressure Air Temp Water Temp Dewpoint Dewpoint Depression Visibility Wind Speed Wind Dir Waves Ship Positions

Bermuda Islander

Last reported at 2018-Feb-20 12:41 UTC. Time now 2018-Feb-20 15:35 UTC.
Position N 38°24' W 074°39'.

Length 100 m; draft 3.9 m.

Type: Ship (hazmat cat B). MMSI: 244820000.

Date/timePositionNaut miles runAvg speedWind from/ knotsBaromVisibWave heightAir tempDewpointWater temp
2018-Feb-20 12:41N 38°24' W 074°39'513.3
2018-Feb-20 12:20N 38°27' W 074°43'1311.8
2018-Feb-20 11:16N 38°37' W 074°53'3 9.6
2018-Feb-20 10:56N 38°40' W 074°55'4 8.9
2018-Feb-20 10:30N 38°43' W 074°58'5 9.4
2018-Feb-20 09:59N 38°46' W 075°02'4 9.2
2018-Feb-20 09:30N 38°50' W 075°05'815.1
2018-Feb-20 09:00N 38°58' W 075°07'815.5
2018-Feb-20 08:30N 39°05' W 075°11'715.0
2018-Feb-20 08:00N 39°11' W 075°16'714.2
2018-Feb-20 07:30N 39°17' W 075°22'713.4
2018-Feb-20 07:00N 39°22' W 075°27'612.7
2018-Feb-20 06:30N 39°27' W 075°33'510.9
2018-Feb-20 06:00N 39°32' W 075°33'3 6.2
2018-Feb-20 05:30N 39°34' W 075°30'1 1.3
2018-Feb-20 04:58N 39°34' W 075°29'0 0.0
2018-Feb-20 04:28N 39°34' W 075°29'0 0.0
2018-Feb-20 03:59N 39°34' W 075°29'0 0.0
2018-Feb-20 03:28N 39°34' W 075°29'0 0.0
2018-Feb-20 02:58N 39°34' W 075°29'0 0.0
2018-Feb-20 02:28N 39°34' W 075°29'0 0.0
2018-Feb-20 01:58N 39°34' W 075°29'0 0.0
2018-Feb-20 01:28N 39°34' W 075°29'0 0.0
2018-Feb-20 00:58N 39°34' W 075°29'0 0.0
2018-Feb-20 00:28N 39°34' W 075°29'0 0.0
2018-Feb-19 23:58N 39°34' W 075°29'0 0.0
2018-Feb-19 23:28N 39°34' W 075°29'0 0.0
2018-Feb-19 22:58N 39°34' W 075°29'0 0.0
2018-Feb-19 22:28N 39°34' W 075°29'0 0.0
2018-Feb-19 21:58N 39°34' W 075°29'0 0.0
2018-Feb-19 21:28N 39°34' W 075°29'0 0.0
2018-Feb-19 20:58N 39°34' W 075°29'0 0.0
2018-Feb-19 20:28N 39°34' W 075°29'0 0.0
2018-Feb-19 19:58N 39°34' W 075°29'0 0.0
2018-Feb-19 19:28N 39°34' W 075°29'0 0.0
2018-Feb-19 18:58N 39°34' W 075°29'0 0.0
2018-Feb-19 18:28N 39°34' W 075°29'0 0.0
2018-Feb-19 17:58N 39°34' W 075°29'0 0.0
2018-Feb-19 17:28N 39°34' W 075°29'0 0.0
2018-Feb-19 16:58N 39°34' W 075°29'0 0.0
2018-Feb-19 16:28N 39°34' W 075°29'0 0.0
2018-Feb-19 15:58N 39°34' W 075°29'0 0.0
2018-Feb-19 15:28N 39°34' W 075°29'0 0.0
2018-Feb-19 14:58N 39°34' W 075°29'0 0.0
2018-Feb-19 14:28N 39°34' W 075°29'0 0.0
2018-Feb-19 13:58N 39°34' W 075°29'0 0.0
2018-Feb-19 13:28N 39°34' W 075°29'0 0.0
2018-Feb-19 12:58N 39°34' W 075°29'0 0.0
2018-Feb-19 12:28N 39°34' W 075°29'0 0.0
2018-Feb-19 12:00N 39°34' W 075°29'1 1.4
2018-Feb-19 11:30N 39°34' W 075°30'3 5.6
2018-Feb-19 11:00N 39°32' W 075°33'0 0.0
2018-Feb-19 10:29N 39°32' W 075°33'0 0.0
2018-Feb-19 09:59N 39°32' W 075°33'0 0.0
2018-Feb-19 09:29N 39°32' W 075°33'0 0.0
2018-Feb-19 08:59N 39°32' W 075°33'0 0.0
2018-Feb-19 08:29N 39°32' W 075°33'0 0.2
2018-Feb-19 07:59N 39°33' W 075°33'0 0.1
2018-Feb-19 07:29N 39°33' W 075°33'0 0.0
2018-Feb-19 06:59N 39°33' W 075°33'0 0.0
2018-Feb-19 06:29N 39°33' W 075°33'0 0.0
2018-Feb-19 05:59N 39°33' W 075°33'0 0.0
2018-Feb-19 05:29N 39°33' W 075°33'1 2.1
2018-Feb-19 05:00N 39°32' W 075°33'611.4
2018-Feb-19 04:30N 39°26' W 075°32'816.3
2018-Feb-19 04:00N 39°20' W 075°25'816.1
2018-Feb-19 03:31N 39°14' W 075°18'815.7
2018-Feb-19 03:00N 39°07' W 075°13'  
2018-Feb-13 07:35N 38°29' W 074°46'413.8
2018-Feb-13 07:16N 38°33' W 074°49'4 9.7
2018-Feb-13 06:51N 38°36' W 074°52'4 9.3
2018-Feb-13 06:23N 38°39' W 074°55'4 9.3
2018-Feb-13 05:59N 38°42' W 074°58'5 9.4
2018-Feb-13 05:24N 38°47' W 075°02'4 9.8
2018-Feb-13 05:00N 38°50' W 075°04'714.5
2018-Feb-13 04:30N 38°57' W 075°07'815.9
2018-Feb-13 04:00N 39°05' W 075°11'815.2
2018-Feb-13 03:30N 39°11' W 075°16'714.5
2018-Feb-13 03:00N 39°17' W 075°22'713.9
2018-Feb-13 02:30N 39°22' W 075°28'713.1
2018-Feb-13 02:00N 39°27' W 075°33'611.1
2018-Feb-13 01:30N 39°32' W 075°33'3 5.8
2018-Feb-13 01:00N 39°34' W 075°30'0 0.7
2018-Feb-13 00:28N 39°34' W 075°29'0 0.0
2018-Feb-12 23:58N 39°34' W 075°29'0 0.0
2018-Feb-12 23:28N 39°34' W 075°29'0 0.0
2018-Feb-12 22:58N 39°34' W 075°29'0 0.0
2018-Feb-12 22:28N 39°34' W 075°29'0 0.0
2018-Feb-12 21:58N 39°34' W 075°29'0 0.0
2018-Feb-12 21:28N 39°34' W 075°29'0 0.0
2018-Feb-12 20:58N 39°34' W 075°29'0 0.0
2018-Feb-12 20:28N 39°34' W 075°29'0 0.0
2018-Feb-12 19:58N 39°34' W 075°29'0 0.0
2018-Feb-12 19:28N 39°34' W 075°29'0 0.0
2018-Feb-12 18:58N 39°34' W 075°29'0 0.0
2018-Feb-12 18:28N 39°34' W 075°29'0 0.0
2018-Feb-12 17:58N 39°34' W 075°29'0 0.0
2018-Feb-12 17:28N 39°34' W 075°29'0 0.0
2018-Feb-12 16:58N 39°34' W 075°29'0 0.0
2018-Feb-12 16:28N 39°34' W 075°29'0 0.0
2018-Feb-12 15:58N 39°34' W 075°29'0 0.0
2018-Feb-12 15:28N 39°34' W 075°29'0 0.0
2018-Feb-12 14:58N 39°34' W 075°29'0 0.0
2018-Feb-12 14:28N 39°34' W 075°29'0 0.0
2018-Feb-12 13:58N 39°34' W 075°29'0 0.0
2018-Feb-12 13:28N 39°34' W 075°29'0 0.0
2018-Feb-12 12:58N 39°34' W 075°29'0 0.0
2018-Feb-12 12:28N 39°34' W 075°29'0 0.3
2018-Feb-12 12:00N 39°34' W 075°29'3 5.8
2018-Feb-12 11:30N 39°33' W 075°32'1 2.0
2018-Feb-12 11:00N 39°32' W 075°33'0 0.1
2018-Feb-12 10:30N 39°32' W 075°33'0 0.1
2018-Feb-12 10:00N 39°32' W 075°33'0 0.0
2018-Feb-12 09:30N 39°32' W 075°33'0 0.0
2018-Feb-12 09:00N 39°32' W 075°33'0 0.0
2018-Feb-12 08:30N 39°32' W 075°33'0 0.0
2018-Feb-12 08:00N 39°32' W 075°33'0 0.1
2018-Feb-12 07:30N 39°32' W 075°33'0 0.0
2018-Feb-12 07:00N 39°32' W 075°33'0 0.0
2018-Feb-12 06:30N 39°32' W 075°33'0 0.0
2018-Feb-12 06:00N 39°32' W 075°33'0 0.0
2018-Feb-12 05:30N 39°32' W 075°33'0 0.0
2018-Feb-12 05:00N 39°32' W 075°33'0 0.1
2018-Feb-12 04:30N 39°32' W 075°33'0 0.0
2018-Feb-12 04:00N 39°32' W 075°33'0 0.0
2018-Feb-12 03:30N 39°32' W 075°33'0 0.2
2018-Feb-12 03:00N 39°32' W 075°33'0 0.1
2018-Feb-12 02:27N 39°32' W 075°33'0 0.0
2018-Feb-12 02:00N 39°32' W 075°33'0 0.0
2018-Feb-12 01:30N 39°32' W 075°33'0 0.1
2018-Feb-12 01:00N 39°32' W 075°33'0 0.0
2018-Feb-12 00:30N 39°32' W 075°33'0 0.0
2018-Feb-12 00:00N 39°32' W 075°33'0 0.0
2018-Feb-11 23:30N 39°32' W 075°33'0 0.0
2018-Feb-11 23:00N 39°32' W 075°33'0 0.1
2018-Feb-11 22:30N 39°32' W 075°33'1 1.7
2018-Feb-11 22:00N 39°31' W 075°33'4 8.2
2018-Feb-11 21:30N 39°27' W 075°33'713.4
2018-Feb-11 21:00N 39°22' W 075°28'713.3
2018-Feb-11 20:30N 39°17' W 075°22'713.3
2018-Feb-11 20:00N 39°12' W 075°17'713.9
2018-Feb-11 19:30N 39°06' W 075°12'814.3
2018-Feb-11 18:59N 38°59' W 075°08'  

Dump ship's entire track history